Time;durP1;ratioP1;P1;durP2;ratioP2;P2;SDS_P1;SDS_P2;PMS_P1;PMS_P2;Temp;Humidity;BMP_temperature;BMP_pressure;BME280_temperature;BME280_humidity;BME280_pressure;Samples;Min_cycle;Max_cycle;Signal;HPM_P1;HPM_P2
2023/08/03 00:01:57;;;;;;;;;4.67;2.00;;;;;19.16;90.50;99830.38;5104696;27;45308;-72
2023/08/03 00:04:22;;;;;;;;;5.67;2.33;;;;;19.08;89.43;99826.75;5064084;27;46169;-73
2023/08/03 00:06:47;;;;;;;;;4.50;2.50;;;;;18.97;87.97;99814.44;5070387;27;45460;-73
2023/08/03 00:09:13;;;;;;;;;1.33;0.67;;;;;19.12;87.85;99845.06;5069723;27;45398;-72
2023/08/03 00:11:38;;;;;;;;;0.33;0.33;;;;;19.07;87.47;99836.66;5075401;27;45427;-72
2023/08/03 00:14:03;;;;;;;;;2.33;1.00;;;;;19.04;88.47;99828.06;5077706;27;50557;-73
2023/08/03 00:16:29;;;;;;;;;3.00;2.67;;;;;19.03;88.82;99827.22;5075167;27;45365;-72
2023/08/03 00:18:54;;;;;;;;;1.67;1.67;;;;;19.06;88.59;99832.28;5094424;27;49856;-73
2023/08/03 00:21:19;;;;;;;;;0.33;0.33;;;;;19.13;87.88;99841.41;5072284;27;45419;-73
2023/08/03 00:23:45;;;;;;;;;3.67;0.67;;;;;19.12;87.40;99849.59;5067939;27;47368;-72
2023/08/03 00:26:10;;;;;;;;;4.00;1.67;;;;;19.10;88.05;99852.44;5076280;27;52848;-72
2023/08/03 00:28:35;;;;;;;;;2.00;1.67;;;;;19.08;85.71;99861.59;5081916;27;45662;-73
2023/08/03 00:31:00;;;;;;;;;3.00;1.67;;;;;19.04;87.50;99854.88;5094597;27;47765;-73
2023/08/03 00:33:26;;;;;;;;;0.67;0.67;;;;;19.03;87.60;99850.50;5077509;27;52543;-73
2023/08/03 00:35:52;;;;;;;;;2.67;1.67;;;;;19.08;86.62;99856.25;5088645;27;45362;-73
2023/08/03 00:38:17;;;;;;;;;1.67;1.00;;;;;19.00;87.32;99850.78;5075844;27;55002;-73
2023/08/03 00:40:43;;;;;;;;;1.67;1.67;;;;;19.07;87.60;99870.66;5069444;27;45534;-73
2023/08/03 00:43:08;;;;;;;;;1.33;0.00;;;;;19.09;88.55;99860.63;5067486;27;45827;-73
2023/08/03 00:45:33;;;;;;;;;0.67;0.67;;;;;19.05;87.30;99838.63;5087870;27;45536;-72
2023/08/03 00:47:59;;;;;;;;;2.33;2.33;;;;;19.04;86.34;99846.84;5080037;27;46189;-73
2023/08/03 00:50:26;;;;;;;;;4.00;0.67;;;;;19.10;86.92;99855.13;5083054;27;46612;-73
2023/08/03 00:52:51;;;;;;;;;1.00;1.00;;;;;19.07;87.57;99851.88;5072410;27;46448;-72
2023/08/03 00:55:16;;;;;;;;;2.33;0.67;;;;;19.11;87.74;99862.16;5074931;27;49054;-72
2023/08/03 00:57:42;;;;;;;;;0.67;0.67;;;;;18.98;86.26;99837.53;5065270;27;45508;-72
2023/08/03 01:00:08;;;;;;;;;2.33;0.67;;;;;19.07;86.75;99851.88;5092672;27;45450;-73
2023/08/03 01:02:33;;;;;;;;;1.33;1.33;;;;;19.06;86.48;99866.28;5062903;28;45379;-73
2023/08/03 01:04:58;;;;;;;;;4.33;3.00;;;;;19.03;88.22;99851.34;5077544;27;45237;-72
2023/08/03 01:07:25;;;;;;;;;3.33;0.67;;;;;19.01;88.13;99857.84;5072431;27;45375;-72
2023/08/03 01:09:51;;;;;;;;;5.00;0.67;;;;;18.95;89.87;99863.78;5070766;27;45419;-73
2023/08/03 01:12:17;;;;;;;;;1.33;1.33;;;;;18.88;88.23;99854.69;5075918;27;46453;-72
2023/08/03 01:14:43;;;;;;;;;3.00;1.33;;;;;18.98;89.87;99876.88;5070099;27;45596;-73
2023/08/03 01:17:09;;;;;;;;;3.67;2.00;;;;;18.93;93.22;99884.53;5065417;27;45447;-73
2023/08/03 01:19:34;;;;;;;;;2.00;0.67;;;;;18.85;97.26;99900.53;5065397;27;45288;-73
2023/08/03 01:22:01;;;;;;;;;2.33;1.00;;;;;18.65;99.54;99889.03;5076515;27;46575;-73
2023/08/03 01:24:28;;;;;;;;;0.67;0.67;;;;;18.60;100.00;99912.69;5075831;27;45331;-73
2023/08/03 01:26:54;;;;;;;;;2.33;1.00;;;;;18.43;100.00;99910.72;5074793;27;45275;-73
2023/08/03 01:29:19;;;;;;;;;0.67;0.67;;;;;18.38;100.00;99923.72;5063380;27;45267;-74
2023/08/03 01:31:44;;;;;;;;;0.67;0.33;;;;;18.20;100.00;99915.56;5092344;27;47263;-74
2023/08/03 01:34:13;;;;;;;;;2.67;1.00;;;;;18.15;100.00;99939.25;5078218;27;45287;-74
2023/08/03 01:36:38;;;;;;;;;2.00;1.00;;;;;17.88;100.00;99902.47;5064045;27;45279;-73
2023/08/03 01:39:08;;;;;;;;;3.00;1.33;;;;;18.02;100.00;99928.81;5077095;27;45486;-73
2023/08/03 01:41:38;;;;;;;;;6.00;1.00;;;;;18.00;100.00;99929.91;5078610;27;46165;-72
2023/08/03 01:44:30;;;;;;;;;3.67;1.00;;;;;17.97;100.00;99927.53;5096034;27;45496;-73
2023/08/03 01:46:57;;;;;;;;;2.00;1.00;;;;;17.94;100.00;99942.03;5077625;27;45494;-73
2023/08/03 01:49:24;;;;;;;;;2.33;1.33;;;;;17.94;100.00;99941.19;5078824;27;45592;-72
2023/08/03 01:51:50;;;;;;;;;1.33;1.33;;;;;17.87;100.00;99932.88;5065281;27;45445;-72
2023/08/03 01:54:15;;;;;;;;;2.33;2.00;;;;;17.86;100.00;99941.91;5077806;27;45365;-72
2023/08/03 01:56:41;;;;;;;;;2.33;2.00;;;;;17.83;100.00;99934.16;5068277;27;45307;-72
2023/08/03 01:59:07;;;;;;;;;2.00;1.00;;;;;17.77;100.00;99940.03;5072105;27;45274;-72
2023/08/03 02:01:32;;;;;;;;;1.00;1.00;;;;;17.65;100.00;99928.66;5073018;27;46879;-72
2023/08/03 02:03:57;;;;;;;;;1.00;1.00;;;;;17.73;100.00;99938.66;5062355;27;45437;-73
2023/08/03 02:06:23;;;;;;;;;1.00;1.00;;;;;17.70;100.00;99939.75;5076363;27;45508;-73
2023/08/03 02:08:48;;;;;;;;;1.00;1.00;;;;;17.69;100.00;99939.91;5067817;27;46784;-73
2023/08/03 02:11:14;;;;;;;;;2.67;1.67;;;;;17.69;100.00;99945.25;5068099;27;45283;-73
2023/08/03 02:13:39;;;;;;;;;3.00;1.00;;;;;17.68;100.00;99939.06;5077287;27;45352;-73
2023/08/03 02:16:10;;;;;;;;;0.00;0.00;;;;;17.69;100.00;99955.97;5076647;27;45252;-73
2023/08/03 02:18:35;;;;;;;;;2.00;1.00;;;;;17.69;100.00;99958.63;5103064;27;45557;-73
2023/08/03 02:21:00;;;;;;;;;3.33;2.00;;;;;17.64;100.00;99945.66;5079181;27;47689;-72
2023/08/03 02:23:26;;;;;;;;;0.33;0.00;;;;;17.68;100.00;99962.28;5068123;27;45352;-73
2023/08/03 02:25:52;;;;;;;;;2.00;1.00;;;;;17.63;100.00;99953.84;5080520;27;49225;-73
2023/08/03 02:28:17;;;;;;;;;2.67;1.00;;;;;17.62;100.00;99946.78;5070959;27;45292;-73
2023/08/03 02:30:42;;;;;;;;;2.67;0.00;;;;;17.68;100.00;99965.81;5074852;27;46257;-73
2023/08/03 02:33:07;;;;;;;;;1.33;0.67;;;;;17.67;100.00;99971.28;5079159;27;51313;-72
2023/08/03 02:35:37;;;;;;;;;1.00;0.00;;;;;17.63;100.00;99960.03;5074710;27;45482;-72
2023/08/03 02:38:02;;;;;;;;;1.67;0.00;;;;;17.54;100.00;99958.13;5071834;27;45465;-73
2023/08/03 02:40:28;;;;;;;;;0.33;0.33;;;;;17.57;100.00;99973.94;5089451;27;45461;-72
2023/08/03 02:42:53;;;;;;;;;2.00;1.00;;;;;17.57;100.00;99971.25;5077952;27;48250;-73
2023/08/03 02:45:18;;;;;;;;;0.33;0.00;;;;;17.51;100.00;99971.78;5071749;28;46634;-73
2023/08/03 02:47:43;;;;;;;;;0.33;0.33;;;;;17.46;100.00;99967.81;5096841;27;45541;-72
2023/08/03 02:50:09;;;;;;;;;1.00;1.00;;;;;17.46;100.00;99966.00;5080962;27;45437;-73
2023/08/03 02:52:34;;;;;;;;;1.67;1.00;;;;;17.37;100.00;99961.47;5074477;27;45512;-73
2023/08/03 02:54:59;;;;;;;;;2.33;1.00;;;;;17.51;100.00;99989.63;5079665;27;53513;-73
2023/08/03 02:57:25;;;;;;;;;1.33;0.00;;;;;17.51;100.00;100001.19;5079333;27;45383;-72
2023/08/03 02:59:50;;;;;;;;;0.00;0.00;;;;;17.42;100.00;99982.44;5088475;27;51743;-72
2023/08/03 03:02:15;;;;;;;;;2.67;2.00;;;;;17.54;100.00;99998.25;5072988;27;49887;-73
2023/08/03 03:04:41;;;;;;;;;0.00;0.00;;;;;17.52;100.00;99991.34;5061206;28;45319;-72
2023/08/03 03:07:06;;;;;;;;;0.33;0.33;;;;;17.48;100.00;99981.91;5069919;27;46691;-73
2023/08/03 03:09:32;;;;;;;;;4.00;0.00;;;;;17.57;100.00;99991.81;5075643;27;47485;-73
2023/08/03 03:11:57;;;;;;;;;0.00;0.00;;;;;17.56;100.00;99982.09;5063384;27;47001;-73
2023/08/03 03:14:23;;;;;;;;;0.00;0.00;;;;;17.60;100.00;99996.91;5076518;27;45631;-72
2023/08/03 03:16:49;;;;;;;;;1.67;1.00;;;;;17.58;100.00;99993.50;5087475;27;45293;-73
2023/08/03 03:19:14;;;;;;;;;0.33;0.00;;;;;17.42;100.00;99969.94;5087918;27;46745;-73
2023/08/03 03:21:39;;;;;;;;;0.00;0.00;;;;;17.48;100.00;99992.59;5081646;27;45261;-72
2023/08/03 03:24:05;;;;;;;;;1.00;0.00;;;;;17.54;100.00;99994.72;5091983;27;45302;-72
2023/08/03 03:26:30;;;;;;;;;2.33;0.33;;;;;17.54;100.00;100000.91;5087794;27;45200;-72
2023/08/03 03:28:55;;;;;;;;;2.00;1.00;;;;;17.53;100.00;100004.59;5090830;27;48181;-73
2023/08/03 03:31:20;;;;;;;;;0.00;0.00;;;;;17.58;100.00;100004.19;5087053;27;47075;-73
2023/08/03 03:33:46;;;;;;;;;1.00;1.00;;;;;17.58;100.00;100001.53;5090162;27;45486;-73
2023/08/03 03:36:11;;;;;;;;;2.33;0.00;;;;;17.62;100.00;100010.97;5098377;27;45463;-73
2023/08/03 03:38:36;;;;;;;;;1.00;0.67;;;;;17.52;100.00;99989.50;5084918;27;54035;-73
2023/08/03 03:41:02;;;;;;;;;1.33;0.00;;;;;17.61;100.00;100017.28;5089017;27;45398;-73
2023/08/03 03:43:27;;;;;;;;;0.67;0.00;;;;;17.49;100.00;100002.31;5083642;27;45417;-73
2023/08/03 03:45:52;;;;;;;;;0.00;0.00;;;;;17.63;100.00;100012.66;5088432;27;45465;-73
2023/08/03 03:48:18;;;;;;;;;1.00;0.00;;;;;17.63;100.00;100012.66;5105778;27;45383;-73
2023/08/03 03:50:43;;;;;;;;;0.00;0.00;;;;;17.58;100.00;100009.53;5083284;27;45469;-74
2023/08/03 03:53:08;;;;;;;;;0.00;0.00;;;;;17.61;100.00;100015.47;5116371;27;51257;-73
2023/08/03 03:55:34;;;;;;;;;0.00;0.00;;;;;17.62;100.00;100025.19;5088111;27;45393;-74
2023/08/03 03:58:00;;;;;;;;;2.00;1.00;;;;;17.64;100.00;100025.03;5088049;27;54156;-73
2023/08/03 04:00:25;;;;;;;;;0.00;0.00;;;;;17.64;100.00;100023.22;5089602;27;45443;-72
2023/08/03 04:02:52;;;;;;;;;1.67;1.00;;;;;17.63;100.00;100024.22;5083923;27;45589;-73
2023/08/03 04:05:17;;;;;;;;;2.67;1.00;;;;;17.56;100.00;100014.19;5087331;27;45323;-73
2023/08/03 04:07:42;;;;;;;;;6.00;0.67;;;;;17.62;100.00;100030.53;5084387;27;45351;-73
2023/08/03 04:10:08;;;;;;;;;2.00;0.00;;;;;17.60;100.00;100023.66;5090420;27;46353;-73
2023/08/03 04:12:33;;;;;;;;;2.00;0.00;;;;;17.48;100.00;100005.94;5088031;27;45463;-73
2023/08/03 04:14:58;;;;;;;;;1.00;0.00;;;;;17.66;100.00;100044.50;5102266;27;53651;-73
2023/08/03 04:17:24;;;;;;;;;3.00;0.00;;;;;17.61;100.00;100039.53;5084159;27;58549;-73
2023/08/03 04:19:49;;;;;;;;;2.33;0.00;;;;;17.61;100.00;100036.00;5083837;27;45429;-73
2023/08/03 04:22:14;;;;;;;;;0.67;0.00;;;;;17.52;100.00;100016.25;5085830;27;45540;-73
2023/08/03 04:24:40;;;;;;;;;0.00;0.00;;;;;17.61;100.00;100034.19;5084158;27;45522;-72
2023/08/03 04:27:05;;;;;;;;;2.00;2.00;;;;;17.65;100.00;100034.75;5085141;27;45366;-73
2023/08/03 04:29:31;;;;;;;;;3.00;1.00;;;;;17.58;100.00;100036.28;5102262;27;45285;-73
2023/08/03 04:31:56;;;;;;;;;2.67;0.00;;;;;17.62;100.00;100037.72;5084161;27;45863;-73
2023/08/03 04:34:21;;;;;;;;;1.00;0.33;;;;;17.59;100.00;100028.13;5089390;27;45390;-73
2023/08/03 04:36:47;;;;;;;;;1.67;0.00;;;;;17.67;100.00;100047.00;5094169;27;47032;-73
2023/08/03 04:39:13;;;;;;;;;0.67;0.00;;;;;17.67;100.00;100039.00;5060409;27;45447;-73
2023/08/03 04:41:38;;;;;;;;;2.67;1.00;;;;;17.68;100.00;100047.88;5071198;27;45379;-72
2023/08/03 04:44:04;;;;;;;;;1.00;1.00;;;;;17.62;100.00;100035.88;5079466;27;45472;-72
2023/08/03 04:46:29;;;;;;;;;1.00;0.67;;;;;17.64;100.00;100035.72;5079684;27;47884;-73
2023/08/03 04:48:54;;;;;;;;;1.00;1.00;;;;;17.71;100.00;100047.59;5082840;27;45432;-73
2023/08/03 04:51:20;;;;;;;;;1.00;1.00;;;;;17.73;100.00;100044.78;5092219;27;45522;-73
2023/08/03 04:53:45;;;;;;;;;2.00;1.00;;;;;17.70;100.00;100041.38;5072713;27;50558;-73
2023/08/03 04:56:10;;;;;;;;;1.00;1.00;;;;;17.67;100.00;100036.31;5078981;27;46507;-72
2023/08/03 04:58:36;;;;;;;;;2.00;0.00;;;;;17.64;100.00;100038.41;5076399;27;45468;-73
2023/08/03 05:01:01;;;;;;;;;1.67;1.00;;;;;17.68;100.00;100048.72;5072367;27;45514;-73
2023/08/03 05:03:26;;;;;;;;;0.33;0.33;;;;;17.72;100.00;100056.47;5078789;27;45426;-73
2023/08/03 05:05:52;;;;;;;;;2.33;1.00;;;;;17.69;100.00;100041.53;5081610;27;45604;-73
2023/08/03 05:08:17;;;;;;;;;2.00;0.67;;;;;17.75;100.00;100070.41;5068984;27;45397;-72
2023/08/03 05:10:42;;;;;;;;;0.00;0.00;;;;;17.75;100.00;100066.88;5097792;27;45889;-73
2023/08/03 05:13:08;;;;;;;;;3.00;1.33;;;;;17.73;100.00;100071.53;5076560;27;45351;-74
2023/08/03 05:15:33;;;;;;;;;2.00;2.00;;;;;17.75;100.00;100065.06;5073313;27;46606;-73
2023/08/03 05:18:01;;;;;;;;;1.33;1.00;;;;;17.73;100.00;100072.38;5084934;27;45407;-73
2023/08/03 05:20:27;;;;;;;;;1.00;1.00;;;;;17.74;100.00;100074.06;5071591;27;45323;-73
2023/08/03 05:22:52;;;;;;;;;2.00;1.00;;;;;17.64;100.00;100057.13;5074978;27;45475;-73
2023/08/03 05:25:17;;;;;;;;;3.00;1.00;;;;;17.75;100.00;100083.78;5064435;27;45439;-73
2023/08/03 05:27:43;;;;;;;;;1.00;0.00;;;;;17.69;100.00;100062.94;5091813;27;45400;-73
2023/08/03 05:30:09;;;;;;;;;1.00;1.00;;;;;17.76;100.00;100090.84;5075128;27;45548;-73
2023/08/03 05:32:34;;;;;;;;;0.00;0.00;;;;;17.73;100.00;100091.13;5078672;27;45356;-73
2023/08/03 05:34:59;;;;;;;;;1.67;1.00;;;;;17.70;100.00;100078.00;5071714;27;45327;-73
2023/08/03 05:37:25;;;;;;;;;1.50;1.50;;;;;17.74;100.00;100081.22;5073831;27;45383;-72
2023/08/03 05:39:50;;;;;;;;;1.67;1.00;;;;;17.66;100.00;100071.22;5073846;27;45350;-72
2023/08/03 05:42:17;;;;;;;;;1.00;1.00;;;;;17.74;100.00;100083.91;5074331;27;45420;-72
2023/08/03 05:44:43;;;;;;;;;2.33;1.67;;;;;17.84;100.00;100092.81;5074336;27;46173;-73
2023/08/03 05:47:10;;;;;;;;;2.00;1.00;;;;;17.86;100.00;100102.44;5073468;27;45575;-74
2023/08/03 05:49:37;;;;;;;;;2.33;2.00;;;;;17.88;100.00;100100.44;5072892;27;45529;-74
2023/08/03 05:52:02;;;;;;;;;2.00;2.00;;;;;17.88;100.00;100103.13;5076733;27;45588;-74
2023/08/03 05:54:28;;;;;;;;;2.33;2.00;;;;;17.90;100.00;100111.84;5062717;27;45469;-74
2023/08/03 05:56:53;;;;;;;;;4.33;2.67;;;;;17.90;100.00;100111.03;5073864;27;45534;-74
2023/08/03 05:59:21;;;;;;;;;2.00;2.00;;;;;17.85;100.00;100105.22;5080999;27;45520;-74
2023/08/03 06:01:51;;;;;;;;;2.33;1.00;;;;;17.85;100.00;100095.38;5085633;27;45500;-74
2023/08/03 06:04:17;;;;;;;;;2.00;1.00;;;;;17.89;100.00;100112.84;5079687;27;45307;-74
2023/08/03 06:06:44;;;;;;;;;2.00;1.00;;;;;17.90;100.00;100122.56;5077085;27;45470;-74
2023/08/03 06:09:11;;;;;;;;;1.33;1.33;;;;;17.91;100.00;100112.69;5092005;27;45303;-74
2023/08/03 06:11:37;;;;;;;;;1.00;1.00;;;;;17.93;100.00;100118.78;5075184;27;45439;-73
2023/08/03 06:14:03;;;;;;;;;1.00;1.00;;;;;17.99;100.00;100118.22;5073947;27;45657;-73
2023/08/03 06:16:28;;;;;;;;;4.33;1.00;;;;;17.99;100.00;100119.09;5072299;27;45459;-74
2023/08/03 06:18:56;;;;;;;;;1.00;1.00;;;;;18.11;100.00;100128.69;5076007;27;45337;-73
2023/08/03 06:21:24;;;;;;;;;3.00;2.33;;;;;18.14;100.00;100132.91;5075397;27;45542;-73
2023/08/03 06:23:51;;;;;;;;;3.33;2.00;;;;;18.07;100.00;100123.72;5073435;27;46004;-73
2023/08/03 06:26:18;;;;;;;;;3.00;1.00;;;;;18.13;100.00;100123.19;5071288;27;45299;-73
2023/08/03 06:28:45;;;;;;;;;2.33;1.00;;;;;18.15;100.00;100131.94;5070156;27;45366;-73
2023/08/03 06:31:24;;;;;;;;;2.67;2.00;;;;;18.15;100.00;100129.25;5075897;27;45583;-73
2023/08/03 06:33:49;;;;;;;;;0.67;0.00;;;;;18.14;100.00;100139.13;5069536;27;45592;-73
2023/08/03 06:36:19;;;;;;;;;2.67;1.67;;;;;18.16;100.00;100141.63;5062809;28;45359;-73
2023/08/03 06:38:44;;;;;;;;;0.00;0.00;;;;;18.19;100.00;100146.75;5072654;27;45252;-73
2023/08/03 06:41:10;;;;;;;;;2.33;2.33;;;;;18.13;100.00;100150.81;5079782;27;45381;-73
2023/08/03 06:43:36;;;;;;;;;4.67;2.33;;;;;18.17;100.00;100152.22;5078566;27;45369;-74
2023/08/03 06:46:02;;;;;;;;;1.00;1.00;;;;;18.05;100.00;100160.50;5071532;27;46411;-73
2023/08/03 06:48:28;;;;;;;;;1.00;1.00;;;;;18.05;100.00;100166.69;5077276;27;45395;-74
2023/08/03 06:50:54;;;;;;;;;1.67;1.67;;;;;18.00;100.00;100173.41;5069892;27;46199;-74
2023/08/03 06:53:20;;;;;;;;;4.67;2.00;;;;;17.99;100.00;100175.28;5069883;27;45574;-74
2023/08/03 06:55:48;;;;;;;;;2.00;2.00;;;;;18.02;100.00;100192.88;5066819;27;45863;-74
2023/08/03 06:58:17;;;;;;;;;2.00;1.00;;;;;17.82;100.00;100159.84;5073362;27;45386;-74
2023/08/03 07:00:44;;;;;;;;;6.33;3.67;;;;;17.97;100.00;100187.91;5093697;27;45300;-74
2023/08/03 07:03:10;;;;;;;;;1.67;1.67;;;;;17.98;100.00;100191.44;5081569;27;46318;-74
2023/08/03 07:05:35;;;;;;;;;2.00;2.00;;;;;17.99;100.00;100193.16;5090953;27;45360;-74
2023/08/03 07:08:01;;;;;;;;;2.00;2.00;;;;;17.90;100.00;100170.72;5062035;27;45386;-74
2023/08/03 07:10:26;;;;;;;;;3.33;1.67;;;;;18.04;100.00;100194.44;5093526;27;45516;-74
2023/08/03 07:12:52;;;;;;;;;3.00;3.00;;;;;18.05;100.00;100190.78;5067053;27;45443;-74
2023/08/03 07:15:18;;;;;;;;;2.67;2.33;;;;;18.07;100.00;100204.03;5061919;27;45409;-74
2023/08/03 07:17:44;;;;;;;;;3.33;2.00;;;;;18.04;100.00;100207.81;5088333;27;45275;-74
2023/08/03 07:20:10;;;;;;;;;1.33;1.33;;;;;17.92;100.00;100176.78;5080041;27;45249;-74
2023/08/03 07:22:36;;;;;;;;;3.33;2.00;;;;;18.12;100.00;100199.97;5061955;27;45352;-74
2023/08/03 07:25:02;;;;;;;;;1.67;1.33;;;;;18.14;100.00;100214.06;5064751;27;45328;-74
2023/08/03 07:27:27;;;;;;;;;2.00;2.00;;;;;18.12;100.00;100224.06;5079671;27;45524;-74
2023/08/03 07:29:53;;;;;;;;;4.33;2.00;;;;;18.12;100.00;100220.53;5066830;27;49168;-74
2023/08/03 07:32:18;;;;;;;;;2.00;2.00;;;;;18.02;100.00;100217.81;5074515;28;45480;-74
2023/08/03 07:34:44;;;;;;;;;2.00;2.00;;;;;18.07;100.00;100228.09;5072440;27;45355;-74
2023/08/03 07:37:09;;;;;;;;;3.00;3.00;;;;;18.05;100.00;100217.56;5078496;27;45334;-74
2023/08/03 07:39:34;;;;;;;;;4.67;3.33;;;;;18.08;100.00;100216.44;5065098;27;45484;-74
2023/08/03 07:42:00;;;;;;;;;3.00;2.00;;;;;18.14;100.00;100234.63;5074040;27;46147;-74
2023/08/03 07:44:25;;;;;;;;;5.00;4.00;;;;;18.14;100.00;100237.28;5061505;27;45391;-74
2023/08/03 07:46:51;;;;;;;;;4.33;2.00;;;;;18.12;100.00;100225.88;5062479;27;45501;-74
2023/08/03 07:49:16;;;;;;;;;3.67;2.67;;;;;18.09;100.00;100224.34;5060400;28;45300;-74
2023/08/03 07:51:41;;;;;;;;;4.00;1.67;;;;;18.12;100.00;100248.16;5083846;27;45535;-74
2023/08/03 07:54:07;;;;;;;;;4.00;2.33;;;;;18.14;100.00;100251.53;5077918;27;45272;-73
2023/08/03 07:56:32;;;;;;;;;2.33;1.00;;;;;18.23;100.00;100255.22;5081330;27;45388;-74
2023/08/03 07:59:00;;;;;;;;;3.00;2.00;;;;;18.22;100.00;100232.94;5100130;27;45280;-74
2023/08/03 08:01:25;;;;;;;;;4.00;2.00;;;;;18.35;100.00;100253.31;5085673;27;45611;-74
2023/08/03 08:03:51;;;;;;;;;4.67;2.00;;;;;18.48;100.00;100261.97;5091714;27;45336;-73
2023/08/03 08:06:19;;;;;;;;;2.00;2.00;;;;;18.56;100.00;100256.78;5099132;27;45721;-74
2023/08/03 08:08:47;;;;;;;;;3.00;1.33;;;;;18.65;100.00;100256.81;5086768;27;45394;-73
2023/08/03 08:11:14;;;;;;;;;1.67;1.33;;;;;18.70;100.00;100283.22;5088284;27;47570;-73
2023/08/03 08:13:40;;;;;;;;;3.33;2.33;;;;;18.75;100.00;100274.78;5075599;27;45318;-73
2023/08/03 08:16:07;;;;;;;;;1.33;1.00;;;;;18.75;100.00;100270.22;5073822;28;45244;-73
2023/08/03 08:18:34;;;;;;;;;1.00;1.00;;;;;18.76;100.00;100276.44;5062147;28;45549;-74
2023/08/03 08:21:02;;;;;;;;;0.67;0.67;;;;;18.67;100.00;100278.97;5064434;27;45304;-75
2023/08/03 08:23:28;;;;;;;;;1.00;1.00;;;;;18.67;100.00;100278.13;5070476;28;45384;-73
2023/08/03 08:25:53;;;;;;;;;0.67;0.67;;;;;18.84;100.00;100281.97;5064759;27;45644;-74
2023/08/03 08:28:19;;;;;;;;;3.00;1.00;;;;;18.88;100.00;100294.13;5064417;28;47791;-74
2023/08/03 08:30:44;;;;;;;;;2.00;0.00;;;;;18.86;100.00;100286.22;5076609;27;45562;-73
2023/08/03 08:33:10;;;;;;;;;1.33;1.00;;;;;18.82;100.00;100284.78;5078931;28;45638;-74
2023/08/03 08:35:35;;;;;;;;;1.33;1.00;;;;;18.96;100.00;100297.78;5062744;27;45327;-74
2023/08/03 08:38:00;;;;;;;;;2.00;2.00;;;;;19.00;100.00;100301.91;5062890;28;45433;-74
2023/08/03 08:40:29;;;;;;;;;1.67;1.67;;;;;19.04;100.00;100300.63;5073477;27;47971;-73
2023/08/03 08:42:56;;;;;;;;;3.00;0.67;;;;;19.04;100.00;100297.13;5084447;27;45415;-73
2023/08/03 08:45:21;;;;;;;;;3.00;1.00;;;;;18.97;100.00;100286.09;5089560;27;45382;-74
2023/08/03 08:47:47;;;;;;;;;1.00;1.00;;;;;19.05;100.00;100299.66;5079766;27;45360;-74
2023/08/03 08:50:13;;;;;;;;;0.67;0.67;;;;;18.92;100.00;100274.94;5080052;27;45571;-74
2023/08/03 08:52:42;;;;;;;;;1.00;1.00;;;;;19.18;100.00;100307.41;5093215;27;45359;-74
2023/08/03 08:55:13;;;;;;;;;1.00;0.33;;;;;19.23;100.00;100303.34;5078730;27;45409;-74
2023/08/03 08:57:38;;;;;;;;;2.00;1.00;;;;;19.39;100.00;100308.16;5076656;27;45518;-74
2023/08/03 09:00:07;;;;;;;;;3.33;2.33;;;;;19.41;100.00;100310.72;5080730;27;46144;-73
2023/08/03 09:02:34;;;;;;;;;0.67;0.67;;;;;19.49;100.00;100316.25;5079644;28;45374;-74
2023/08/03 09:05:17;;;;;;;;;1.67;1.00;;;;;19.44;100.00;100311.28;5063257;28;45412;-74
2023/08/03 09:07:43;;;;;;;;;0.67;0.67;;;;;19.51;100.00;100316.94;5078696;27;45445;-74
2023/08/03 09:10:10;;;;;;;;;1.00;0.67;;;;;19.53;100.00;100334.59;5092216;27;45435;-73
2023/08/03 09:12:38;;;;;;;;;0.00;0.00;;;;;19.45;100.00;100313.00;5079303;28;45344;-74
2023/08/03 09:15:04;;;;;;;;;4.00;0.67;;;;;19.59;100.00;100349.28;5081012;27;45380;-74
2023/08/03 09:17:30;;;;;;;;;0.67;0.67;;;;;19.60;100.00;100334.88;5092774;27;45356;-74
2023/08/03 09:19:55;;;;;;;;;1.33;1.33;;;;;19.68;100.00;100333.19;5077889;28;47050;-74
2023/08/03 09:22:23;;;;;;;;;1.00;0.67;;;;;19.89;100.00;100337.56;5079102;27;45511;-74
2023/08/03 09:25:08;;;;;;;;;1.67;1.00;;;;;20.10;100.00;100340.91;5091774;27;45401;-74
2023/08/03 09:27:48;;;;;;;;;2.33;0.67;;;;;20.30;100.00;100349.78;5061299;27;45478;-74
2023/08/03 09:30:13;;;;;;;;;1.00;1.00;;;;;20.37;100.00;100332.09;5080909;27;45306;-74
2023/08/03 09:32:39;;;;;;;;;1.33;1.00;;;;;20.50;100.00;100338.84;5081145;27;45282;-74
2023/08/03 09:35:17;;;;;;;;;2.67;1.67;;;;;20.73;100.00;100358.13;5090270;27;45201;-74
2023/08/03 09:37:43;;;;;;;;;1.33;1.33;;;;;20.82;100.00;100345.63;5078731;27;45347;-74
2023/08/03 09:40:09;;;;;;;;;2.67;1.00;;;;;20.80;100.00;100351.19;5060835;28;45389;-74
2023/08/03 09:42:37;;;;;;;;;2.00;1.00;;;;;21.02;99.25;100358.84;5079763;27;45455;-74
2023/08/03 09:45:03;;;;;;;;;1.00;1.00;;;;;21.27;96.15;100362.69;5080113;27;45395;-74
2023/08/03 09:47:30;;;;;;;;;1.33;1.33;;;;;21.48;98.15;100347.09;5079653;27;45395;-74
2023/08/03 09:49:56;;;;;;;;;1.33;1.33;;;;;21.80;92.95;100363.56;5088798;27;45439;-74
2023/08/03 09:52:26;;;;;;;;;1.00;1.00;;;;;22.02;93.88;100338.00;5082308;27;45343;-74
2023/08/03 09:55:05;;;;;;;;;0.00;0.00;;;;;22.27;88.30;100345.28;5079205;28;45403;-74
2023/08/03 09:57:38;;;;;;;;;0.33;0.33;;;;;22.41;89.04;100343.00;5081550;27;45473;-74
2023/08/03 10:00:06;;;;;;;;;0.00;0.00;;;;;22.43;85.25;100338.28;5083164;27;46410;-74
2023/08/03 10:02:39;;;;;;;;;1.00;1.00;;;;;22.51;86.46;100359.94;5085584;27;45316;-75
2023/08/03 10:05:09;;;;;;;;;1.67;0.67;;;;;22.20;83.16;100338.84;5090518;27;45319;-75
2023/08/03 10:07:44;;;;;;;;;0.00;0.00;;;;;22.26;85.14;100365.13;5083899;27;45372;-75
2023/08/03 10:10:15;;;;;;;;;0.00;0.00;;;;;22.10;84.86;100369.56;5079799;27;45618;-75
2023/08/03 10:12:50;;;;;;;;;1.00;1.00;;;;;22.02;87.05;100350.66;5080053;27;45344;-75
2023/08/03 10:15:16;;;;;;;;;1.67;1.00;;;;;22.01;83.86;100352.50;5065288;27;45391;-76
2023/08/03 10:17:43;;;;;;;;;1.00;1.00;;;;;21.84;82.76;100374.88;5089050;27;45388;-75
2023/08/03 10:20:09;;;;;;;;;0.67;0.67;;;;;21.71;85.71;100371.72;5089385;27;46634;-75
2023/08/03 10:22:35;;;;;;;;;1.00;0.00;;;;;21.56;84.41;100367.88;5080715;27;45447;-75
2023/08/03 10:25:17;;;;;;;;;0.33;0.33;;;;;21.37;87.07;100386.84;5094593;27;45334;-75
2023/08/03 10:28:13;;;;;;;;;2.00;0.67;;;;;21.10;86.12;100385.88;5094730;27;45529;-75
2023/08/03 10:31:18;;;;;;;;;2.00;1.00;;;;;20.94;90.48;100401.75;5096353;27;46258;-75
2023/08/03 10:33:46;;;;;;;;;0.67;0.67;;;;;20.79;88.39;100400.53;5095387;27;45384;-75
2023/08/03 10:36:43;;;;;;;;;1.00;1.00;;;;;20.68;93.25;100408.81;5083045;27;45530;-75
2023/08/03 10:39:16;;;;;;;;;2.00;1.00;;;;;20.56;90.71;100397.38;5072775;27;45449;-75
2023/08/03 10:41:44;;;;;;;;;1.67;0.67;;;;;20.50;92.55;100407.84;5080223;28;45490;-75
2023/08/03 10:44:12;;;;;;;;;0.33;0.33;;;;;20.49;95.85;100409.69;5077074;28;45335;-75
2023/08/03 10:46:47;;;;;;;;;0.00;0.00;;;;;20.45;93.83;100410.13;5081820;27;45313;-76
2023/08/03 10:49:25;;;;;;;;;5.00;1.67;;;;;20.50;94.72;100414.06;5087432;27;45540;-76
2023/08/03 10:52:13;;;;;;;;;1.00;1.00;;;;;20.56;93.01;100413.50;5099261;27;46438;-75
2023/08/03 10:54:38;;;;;;;;;0.33;0.00;;;;;20.70;94.81;100417.56;5081502;27;45394;-75
2023/08/03 10:57:08;;;;;;;;;2.00;1.00;;;;;20.79;93.13;100420.22;5090174;27;45409;-76
2023/08/03 10:59:43;;;;;;;;;2.67;1.67;;;;;20.77;91.84;100411.47;5094479;27;45455;-75
2023/08/03 11:02:19;;;;;;;;;2.00;1.00;;;;;20.97;94.25;100420.31;5062738;27;45532;-75
2023/08/03 11:04:45;;;;;;;;;0.67;0.00;;;;;21.11;90.28;100418.97;5081750;28;45443;-75
2023/08/03 11:07:14;;;;;;;;;0.67;0.67;;;;;21.04;89.71;100423.25;5095055;27;45608;-75
2023/08/03 11:09:39;;;;;;;;;1.00;1.00;;;;;21.02;88.65;100435.97;5063304;28;45486;-75
2023/08/03 11:12:07;;;;;;;;;0.00;0.00;;;;;20.91;89.05;100423.56;5094741;27;46110;-75
2023/08/03 11:14:34;;;;;;;;;0.67;0.67;;;;;20.86;91.60;100419.63;5081760;27;45591;-75
2023/08/03 11:16:59;;;;;;;;;1.67;1.00;;;;;20.95;89.78;100430.34;5081074;27;45354;-75
2023/08/03 11:19:31;;;;;;;;;3.00;0.00;;;;;21.00;88.77;100438.81;5093129;27;45479;-75
2023/08/03 11:21:57;;;;;;;;;1.00;1.00;;;;;20.98;89.03;100434.56;5087299;27;46053;-75